Time;durP1;ratioP1;P1;durP2;ratioP2;P2;SDS_P1;SDS_P2;PMS_P1;PMS_P2;Temp;Humidity;BMP_temperature;BMP_pressure;BME280_temperature;BME280_humidity;BME280_pressure;Samples;Min_cycle;Max_cycle;Signal;HPM_P1;HPM_P2
2023/11/17 00:00:13;;;;;;;;;;;;;;;;;;4963646;28;19926;-77
2023/11/17 00:02:40;;;;;;;;;;;;;;;;;;4951906;28;19926;-77
2023/11/17 00:05:07;;;;;;;;;;;;;;;;;;4928317;29;19927;-77
2023/11/17 00:07:33;;;;;;;;;;;;;;;;;;4952453;28;19934;-77
2023/11/17 00:10:00;;;;;;;;;;;;;;;;;;4946330;28;19972;-74
2023/11/17 00:12:27;;;;;;;;;;;;;;;;;;4960924;28;19930;-78
2023/11/17 00:14:53;;;;;;;;;;;;;;;;;;4960856;28;19970;-76
2023/11/17 00:17:19;;;;;;;;;;;;;;;;;;4949319;28;19927;-75
2023/11/17 00:19:46;;;;;;;;;;;;;;;;;;4959959;28;20304;-76
2023/11/17 00:22:16;;;;;;;;;;;;;;;;;;4957648;28;19933;-78
2023/11/17 00:24:43;;;;;;;;;;;;;;;;;;4964642;28;20339;-78
2023/11/17 00:27:10;;;;;;;;;;;;;;;;;;4954880;28;20018;-77
2023/11/17 00:29:37;;;;;;;;;;;;;;;;;;4966280;28;19926;-81
2023/11/17 00:32:03;;;;;;;;;;;;;;;;;;4962881;28;20409;-76
2023/11/17 00:34:29;;;;;;;;;;;;;;;;;;4962984;28;19926;-76
2023/11/17 00:36:58;;;;;;;;;;;;;;;;;;4931500;28;19968;-75
2023/11/17 00:39:28;;;;;;;;;;;;;;;;;;4950219;29;19930;-75
2023/11/17 00:41:55;;;;;;;;;;;;;;;;;;4968134;28;20343;-76
2023/11/17 00:44:22;;;;;;;;;;;;;;;;;;4962922;28;19931;-76
2023/11/17 00:46:48;;;;;;;;;;;;;;;;;;4948969;28;19990;-74
2023/11/17 00:49:15;;;;;;;;;;;;;;;;;;4961826;28;19934;-74
2023/11/17 00:51:41;;;;;;;;;;;;;;;;;;4933483;28;20359;-76
2023/11/17 00:54:08;;;;;;;;;;;;;;;;;;4959343;28;19934;-76
2023/11/17 00:56:34;;;;;;;;;;;;;;;;;;4958314;28;19973;-76
2023/11/17 00:59:01;;;;;;;;;;;;;;;;;;4962816;28;19961;-76
2023/11/17 01:01:27;;;;;;;;;;;;;;;;;;4937880;28;20395;-75
2023/11/17 01:03:54;;;;;;;;;;;;;;;;;;4958518;28;19977;-76
2023/11/17 01:06:21;;;;;;;;;;;;;;;;;;4954226;28;20021;-76
2023/11/17 01:08:47;;;;;;;;;;;;;;;;;;4935769;28;19933;-76
2023/11/17 01:11:14;;;;;;;;;;;;;;;;;;4941158;28;19936;-78
2023/11/17 01:13:41;;;;;;;;;;;;;;;;;;4959509;28;19932;-75
2023/11/17 01:16:08;;;;;;;;;;;;;;;;;;4956491;28;19933;-75
2023/11/17 01:18:34;;;;;;;;;;;;;;;;;;4962705;28;19941;-78
2023/11/17 01:21:00;;;;;;;;;;;;;;;;;;4950541;28;19932;-75
2023/11/17 01:23:28;;;;;;;;;;;;;;;;;;4964077;28;19926;-75
2023/11/17 01:25:54;;;;;;;;;;;;;;;;;;4955504;28;19926;-76
2023/11/17 01:28:21;;;;;;;;;;;;;;;;;;4922581;28;20024;-76
2023/11/17 01:30:48;;;;;;;;;;;;;;;;;;4961236;28;20342;-76
2023/11/17 01:33:14;;;;;;;;;;;;;;;;;;4945134;28;20013;-75
2023/11/17 01:35:42;;;;;;;;;;;;;;;;;;4942248;28;20261;-75
2023/11/17 01:38:08;;;;;;;;;;;;;;;;;;4960426;28;20395;-76
2023/11/17 01:40:35;;;;;;;;;;;;;;;;;;4957176;28;19930;-74
2023/11/17 01:43:05;;;;;;;;;;;;;;;;;;4963756;28;20314;-75
2023/11/17 01:45:32;;;;;;;;;;;;;;;;;;4959016;28;20066;-75
2023/11/17 01:47:59;;;;;;;;;;;;;;;;;;4954111;28;19930;-76
2023/11/17 01:50:26;;;;;;;;;;;;;;;;;;4949307;28;20295;-77
2023/11/17 01:52:52;;;;;;;;;;;;;;;;;;4938753;28;20344;-75
2023/11/17 01:55:19;;;;;;;;;;;;;;;;;;4960215;28;20044;-76
2023/11/17 01:57:48;;;;;;;;;;;;;;;;;;4947345;28;19929;-75
2023/11/17 02:00:15;;;;;;;;;;;;;;;;;;4959406;28;20021;-76
2023/11/17 02:02:43;;;;;;;;;;;;;;;;;;4940030;28;19972;-76
2023/11/17 02:05:10;;;;;;;;;;;;;;;;;;4956955;28;20303;-79
2023/11/17 02:07:39;;;;;;;;;;;;;;;;;;4950391;28;20041;-75
2023/11/17 02:10:06;;;;;;;;;;;;;;;;;;4945065;28;19949;-75
2023/11/17 02:12:35;;;;;;;;;;;;;;;;;;4958970;28;19982;-77
2023/11/17 02:15:08;;;;;;;;;;;;;;;;;;4945100;28;19934;-74
2023/11/17 02:17:35;;;;;;;;;;;;;;;;;;4951306;28;20303;-76
2023/11/17 02:20:11;;;;;;;;;;;;;;;;;;4961206;28;20039;-74
2023/11/17 02:22:39;;;;;;;;;;;;;;;;;;4935421;28;19927;-75
2023/11/17 02:25:10;;;;;;;;;;;;;;;;;;4967044;28;20456;-76
2023/11/17 02:27:37;;;;;;;;;;;;;;;;;;4937491;28;19930;-77
2023/11/17 02:30:04;;;;;;;;;;;;;;;;;;4938572;28;20038;-75
2023/11/17 02:32:30;;;;;;;;;;;;;;;;;;4942905;28;19930;-75
2023/11/17 02:34:58;;;;;;;;;;;;;;;;;;4937887;28;19930;-74
2023/11/17 02:37:24;;;;;;;;;;;;;;;;;;4947060;28;20533;-74
2023/11/17 02:39:51;;;;;;;;;;;;;;;;;;4947506;28;19957;-76
2023/11/17 02:42:24;;;;;;;;;;;;;;;;;;4954482;28;19970;-77
2023/11/17 02:44:50;;;;;;;;;;;;;;;;;;4947412;28;19930;-74
2023/11/17 02:47:27;;;;;;;;;;;;;;;;;;4948960;28;20336;-76
2023/11/17 02:50:00;;;;;;;;;;;;;;;;;;4961453;28;20283;-76
2023/11/17 02:52:31;;;;;;;;;;;;;;;;;;4955284;28;20391;-75
2023/11/17 02:54:59;;;;;;;;;;;;;;;;;;4965349;28;20370;-75
2023/11/17 02:57:25;;;;;;;;;;;;;;;;;;4957988;28;19933;-75
2023/11/17 02:59:53;;;;;;;;;;;;;;;;;;4961891;28;19966;-74
2023/11/17 03:02:20;;;;;;;;;;;;;;;;;;4957690;28;19969;-77
2023/11/17 03:04:47;;;;;;;;;;;;;;;;;;4961392;28;19958;-74
2023/11/17 03:07:15;;;;;;;;;;;;;;;;;;4947923;28;19934;-74
2023/11/17 03:09:42;;;;;;;;;;;;;;;;;;4943664;28;19934;-76
2023/11/17 03:12:09;;;;;;;;;;;;;;;;;;4955678;28;19974;-76
2023/11/17 03:14:39;;;;;;;;;;;;;;;;;;4960047;28;20371;-76
2023/11/17 03:17:09;;;;;;;;;;;;;;;;;;4954611;28;20375;-75
2023/11/17 03:19:36;;;;;;;;;;;;;;;;;;4941950;28;19937;-76
2023/11/17 03:22:03;;;;;;;;;;;;;;;;;;4935275;28;20473;-77
2023/11/17 03:24:30;;;;;;;;;;;;;;;;;;4945062;28;19926;-73
2023/11/17 03:26:56;;;;;;;;;;;;;;;;;;4943845;28;19926;-77
2023/11/17 03:29:24;;;;;;;;;;;;;;;;;;4943459;28;19973;-74
2023/11/17 03:31:52;;;;;;;;;;;;;;;;;;4945757;28;19934;-78
2023/11/17 03:34:23;;;;;;;;;;;;;;;;;;4963829;28;19970;-74
2023/11/17 03:36:56;;;;;;;;;;;;;;;;;;4944088;28;19927;-78
2023/11/17 03:39:23;;;;;;;;;;;;;;;;;;4951887;28;19994;-77
2023/11/17 03:41:49;;;;;;;;;;;;;;;;;;4943576;28;19930;-76
2023/11/17 03:44:16;;;;;;;;;;;;;;;;;;4958991;28;19926;-75
2023/11/17 03:46:42;;;;;;;;;;;;;;;;;;4958936;28;19927;-78
2023/11/17 03:49:09;;;;;;;;;;;;;;;;;;4941114;28;19927;-76
2023/11/17 03:51:37;;;;;;;;;;;;;;;;;;4930826;28;20362;-76
2023/11/17 03:54:05;;;;;;;;;;;;;;;;;;4976864;28;19973;-74
2023/11/17 03:56:32;;;;;;;;;;;;;;;;;;4949703;28;20292;-74
2023/11/17 03:58:58;;;;;;;;;;;;;;;;;;4947753;28;19927;-76
2023/11/17 04:01:25;;;;;;;;;;;;;;;;;;4960586;28;20375;-77
2023/11/17 04:03:52;;;;;;;;;;;;;;;;;;4970526;28;19926;-76
2023/11/17 04:06:20;;;;;;;;;;;;;;;;;;4956009;28;19927;-74
2023/11/17 04:08:46;;;;;;;;;;;;;;;;;;4974040;28;19988;-73
2023/11/17 04:11:15;;;;;;;;;;;;;;;;;;4964068;28;19996;-76
2023/11/17 04:13:42;;;;;;;;;;;;;;;;;;4948735;28;19931;-76
2023/11/17 04:16:09;;;;;;;;;;;;;;;;;;4954171;28;19973;-75
2023/11/17 04:18:38;;;;;;;;;;;;;;;;;;4951122;28;20415;-77
2023/11/17 04:21:05;;;;;;;;;;;;;;;;;;4945778;28;19927;-77
2023/11/17 04:23:32;;;;;;;;;;;;;;;;;;4957327;28;19958;-76
2023/11/17 04:25:58;;;;;;;;;;;;;;;;;;4961169;28;19926;-75
2023/11/17 04:28:24;;;;;;;;;;;;;;;;;;4963804;28;20399;-75
2023/11/17 04:30:51;;;;;;;;;;;;;;;;;;4960076;28;20025;-77
2023/11/17 04:33:18;;;;;;;;;;;;;;;;;;4941250;28;19961;-76
2023/11/17 04:35:45;;;;;;;;;;;;;;;;;;4954137;28;20021;-75
2023/11/17 04:38:11;;;;;;;;;;;;;;;;;;4953227;28;20013;-75
2023/11/17 04:40:37;;;;;;;;;;;;;;;;;;4976891;28;19926;-77
2023/11/17 04:43:07;;;;;;;;;;;;;;;;;;4955980;28;20365;-75
2023/11/17 04:45:42;;;;;;;;;;;;;;;;;;4962875;28;19938;-76
2023/11/17 04:48:09;;;;;;;;;;;;;;;;;;4938056;28;19962;-75
2023/11/17 04:50:35;;;;;;;;;;;;;;;;;;4981800;28;19934;-77
2023/11/17 04:53:01;;;;;;;;;;;;;;;;;;4937335;28;20033;-76
2023/11/17 04:55:28;;;;;;;;;;;;;;;;;;4957077;28;20471;-76
2023/11/17 04:57:57;;;;;;;;;;;;;;;;;;4955856;28;20411;-75
2023/11/17 05:00:25;;;;;;;;;;;;;;;;;;4945756;28;19988;-74
2023/11/17 05:02:53;;;;;;;;;;;;;;;;;;4950910;28;20390;-75
2023/11/17 05:05:20;;;;;;;;;;;;;;;;;;4970228;28;19930;-74
2023/11/17 05:07:46;;;;;;;;;;;;;;;;;;4959230;28;19961;-78
2023/11/17 05:10:14;;;;;;;;;;;;;;;;;;4956068;28;20021;-76
2023/11/17 05:12:41;;;;;;;;;;;;;;;;;;4932940;28;19973;-76
2023/11/17 05:15:07;;;;;;;;;;;;;;;;;;4944755;28;20467;-74
2023/11/17 05:17:43;;;;;;;;;;;;;;;;;;4951214;28;19998;-76
2023/11/17 05:20:10;;;;;;;;;;;;;;;;;;4960393;28;19926;-78
2023/11/17 05:22:37;;;;;;;;;;;;;;;;;;4952988;28;19938;-76
2023/11/17 05:25:06;;;;;;;;;;;;;;;;;;4969295;28;19937;-76
2023/11/17 05:27:33;;;;;;;;;;;;;;;;;;4959796;28;19970;-76
2023/11/17 05:30:00;;;;;;;;;;;;;;;;;;4957236;28;19965;-75
2023/11/17 05:32:26;;;;;;;;;;;;;;;;;;4938812;28;19973;-75
2023/11/17 05:34:52;;;;;;;;;;;;;;;;;;4959001;28;19930;-75
2023/11/17 05:37:19;;;;;;;;;;;;;;;;;;4966130;28;19927;-76
2023/11/17 05:39:45;;;;;;;;;;;;;;;;;;4955503;28;19934;-74
2023/11/17 05:42:12;;;;;;;;;;;;;;;;;;4942764;28;20439;-76
2023/11/17 05:44:38;;;;;;;;;;;;;;;;;;4962064;28;19930;-76
2023/11/17 05:47:08;;;;;;;;;;;;;;;;;;4943685;28;19957;-75
2023/11/17 05:49:42;;;;;;;;;;;;;;;;;;4960673;28;20045;-76
2023/11/17 05:52:09;;;;;;;;;;;;;;;;;;4955639;28;19927;-75
2023/11/17 05:54:36;;;;;;;;;;;;;;;;;;4959240;28;19930;-78
2023/11/17 05:57:02;;;;;;;;;;;;;;;;;;4959237;28;20311;-78
2023/11/17 05:59:29;;;;;;;;;;;;;;;;;;4954926;28;20423;-76
2023/11/17 06:01:59;;;;;;;;;;;;;;;;;;4945949;28;19931;-76
2023/11/17 06:04:28;;;;;;;;;;;;;;;;;;4954372;28;19930;-77
2023/11/17 06:06:54;;;;;;;;;;;;;;;;;;4958492;28;20307;-75
2023/11/17 06:09:20;;;;;;;;;;;;;;;;;;4950149;28;19965;-76
2023/11/17 06:11:48;;;;;;;;;;;;;;;;;;4959898;28;20024;-77
2023/11/17 06:14:15;;;;;;;;;;;;;;;;;;4942929;28;19933;-77
2023/11/17 06:16:42;;;;;;;;;;;;;;;;;;4955073;28;20295;-77
2023/11/17 06:19:09;;;;;;;;;;;;;;;;;;4952767;28;19927;-75
2023/11/17 06:21:36;;;;;;;;;;;;;;;;;;4943560;28;19926;-76
2023/11/17 06:24:03;;;;;;;;;;;;;;;;;;4959904;28;19954;-75
2023/11/17 06:26:30;;;;;;;;;;;;;;;;;;4959237;28;19966;-74
2023/11/17 06:28:57;;;;;;;;;;;;;;;;;;4948495;28;19930;-77
2023/11/17 06:31:28;;;;;;;;;;;;;;;;;;4944575;28;19970;-76
2023/11/17 06:33:54;;;;;;;;;;;;;;;;;;4949888;28;20344;-77
2023/11/17 06:36:21;;;;;;;;;;;;;;;;;;4941696;28;20277;-77
2023/11/17 06:38:47;;;;;;;;;;;;;;;;;;4956234;28;19930;-74
2023/11/17 06:41:14;;;;;;;;;;;;;;;;;;4951891;28;19931;-78
2023/11/17 06:43:41;;;;;;;;;;;;;;;;;;4951399;28;19930;-77
2023/11/17 06:46:07;;;;;;;;;;;;;;;;;;4949247;28;19926;-78
2023/11/17 06:48:37;;;;;;;;;;;;;;;;;;4961816;28;19937;-75
2023/11/17 06:51:05;;;;;;;;;;;;;;;;;;4937455;28;19954;-78
2023/11/17 06:53:32;;;;;;;;;;;;;;;;;;4958212;28;19970;-74
2023/11/17 06:55:59;;;;;;;;;;;;;;;;;;4952961;28;19981;-74
2023/11/17 06:58:26;;;;;;;;;;;;;;;;;;4955536;28;19927;-77
2023/11/17 07:00:53;;;;;;;;;;;;;;;;;;4954752;28;19992;-78
2023/11/17 07:03:21;;;;;;;;;;;;;;;;;;4957884;28;19930;-74
2023/11/17 07:05:48;;;;;;;;;;;;;;;;;;4948023;28;20394;-77
2023/11/17 07:08:17;;;;;;;;;;;;;;;;;;4962352;28;19933;-79
2023/11/17 07:10:44;;;;;;;;;;;;;;;;;;4962197;28;20053;-76
2023/11/17 07:13:11;;;;;;;;;;;;;;;;;;4950062;28;19954;-77
2023/11/17 07:15:39;;;;;;;;;;;;;;;;;;4945482;28;20430;-78
2023/11/17 07:18:06;;;;;;;;;;;;;;;;;;4961063;28;20038;-75
2023/11/17 07:21:28;;;;;;;;;;;;;;;;;;5075353;28;19999;-78
2023/11/17 07:23:58;;;;;;;;;;;;;;;;;;5089816;28;19931;-78
2023/11/17 07:26:25;;;;;;;;;;;;;;;;;;5090628;28;19967;-76
2023/11/17 07:28:51;;;;;;;;;;;;;;;;;;5077740;28;19988;-76
2023/11/17 07:31:18;;;;;;;;;;;;;;;;;;5081550;28;20233;-74
2023/11/17 07:33:44;;;;;;;;;;;;;;;;;;5078307;28;19964;-78
2023/11/17 07:36:11;;;;;;;;;;;;;;;;;;5076363;28;20444;-74
2023/11/17 07:38:38;;;;;;;;;;;;;;;;;;5080224;28;19929;-80
2023/11/17 07:41:05;;;;;;;;;;;;;;;;;;5079376;28;19931;-79
2023/11/17 07:43:31;;;;;;;;;;;;;;;;;;5054958;28;20365;-77
2023/11/17 07:45:58;;;;;;;;;;;;;;;;;;5077137;28;19924;-77
2023/11/17 07:48:25;;;;;;;;;;;;;;;;;;5081395;28;19932;-76
2023/11/17 07:50:52;;;;;;;;;;;;;;;;;;5093352;28;19932;-75
2023/11/17 07:53:18;;;;;;;;;;;;;;;;;;5080850;28;20445;-76
2023/11/17 07:55:46;;;;;;;;;;;;;;;;;;5064509;28;20019;-76
2023/11/17 07:58:12;;;;;;;;;;;;;;;;;;5078100;28;20019;-75
2023/11/17 08:00:38;;;;;;;;;;;;;;;;;;5076414;28;19924;-76
2023/11/17 08:03:05;;;;;;;;;;;;;;;;;;5077256;28;19934;-76
2023/11/17 08:05:31;;;;;;;;;;;;;;;;;;5063967;28;20069;-78
2023/11/17 08:07:59;;;;;;;;;;;;;;;;;;5078789;28;19934;-76
2023/11/17 08:10:29;;;;;;;;;;;;;;;;;;5079810;28;19928;-77
2023/11/17 08:12:55;;;;;;;;;;;;;;;;;;5077049;28;19929;-74
2023/11/17 08:15:22;;;;;;;;;;;;;;;;;;5064454;28;19924;-76
2023/11/17 08:17:48;;;;;;;;;;;;;;;;;;5077691;28;19936;-75
2023/11/17 08:20:15;;;;;;;;;;;;;;;;;;5059634;28;19924;-78
2023/11/17 08:22:42;;;;;;;;;;;;;;;;;;5076639;28;20303;-77
2023/11/17 08:25:09;;;;;;;;;;;;;;;;;;5078563;28;19975;-78
2023/11/17 08:27:36;;;;;;;;;;;;;;;;;;5083583;28;19929;-77
2023/11/17 08:30:07;;;;;;;;;;;;;;;;;;5073056;28;20050;-77
2023/11/17 08:32:33;;;;;;;;;;;;;;;;;;5066636;28;19943;-78
2023/11/17 08:35:00;;;;;;;;;;;;;;;;;;5065360;28;19993;-77
2023/11/17 08:37:28;;;;;;;;;;;;;;;;;;5062666;28;19929;-77
2023/11/17 08:39:55;;;;;;;;;;;;;;;;;;5065232;28;19935;-77
2023/11/17 08:42:22;;;;;;;;;;;;;;;;;;5064724;28;19967;-77
2023/11/17 08:44:48;;;;;;;;;;;;;;;;;;5061417;28;19931;-77
2023/11/17 08:47:15;;;;;;;;;;;;;;;;;;5067903;28;19936;-76
2023/11/17 08:49:42;;;;;;;;;;;;;;;;;;5064441;28;19935;-78
2023/11/17 08:52:08;;;;;;;;;;;;;;;;;;5045864;28;19956;-78
2023/11/17 08:54:34;;;;;;;;;;;;;;;;;;5060843;28;20002;-74
2023/11/17 08:57:01;;;;;;;;;;;;;;;;;;5068963;28;19982;-77
2023/11/17 08:59:29;;;;;;;;;;;;;;;;;;5062312;28;20000;-76
2023/11/17 09:01:55;;;;;;;;;;;;;;;;;;5066026;28;20403;-78
2023/11/17 09:04:22;;;;;;;;;;;;;;;;;;5067323;28;20253;-78
2023/11/17 09:06:49;;;;;;;;;;;;;;;;;;5048100;28;19929;-78
2023/11/17 09:09:17;;;;;;;;;;;;;;;;;;5063296;28;19956;-77
2023/11/17 09:11:54;;;;;;;;;;;;;;;;;;5061113;28;20288;-77
2023/11/17 09:14:20;;;;;;;;;;;;;;;;;;5069929;28;19935;-76
2023/11/17 09:16:47;;;;;;;;;;;;;;;;;;5048750;28;20407;-78
2023/11/17 09:19:16;;;;;;;;;;;;;;;;;;5069375;28;19936;-75
2023/11/17 09:21:42;;;;;;;;;;;;;;;;;;5060786;28;20266;-76
2023/11/17 09:24:09;;;;;;;;;;;;;;;;;;5065698;28;19955;-76
2023/11/17 09:26:36;;;;;;;;;;;;;;;;;;5058910;28;19924;-76
2023/11/17 09:29:02;;;;;;;;;;;;;;;;;;5064379;28;20019;-77
2023/11/17 09:31:28;;;;;;;;;;;;;;;;;;5063309;28;19931;-76
2023/11/17 09:33:56;;;;;;;;;;;;;;;;;;5062477;28;20443;-79
2023/11/17 09:36:23;;;;;;;;;;;;;;;;;;5066207;28;20463;-77
2023/11/17 09:38:49;;;;;;;;;;;;;;;;;;5059629;28;20031;-77
2023/11/17 09:41:16;;;;;;;;;;;;;;;;;;5070539;28;19982;-75
2023/11/17 09:43:47;;;;;;;;;;;;;;;;;;5047666;28;19931;-76
2023/11/17 09:46:16;;;;;;;;;;;;;;;;;;5063794;28;19982;-76
2023/11/17 09:48:42;;;;;;;;;;;;;;;;;;5052699;28;19929;-76
2023/11/17 09:51:08;;;;;;;;;;;;;;;;;;5057414;28;20369;-77
2023/11/17 09:53:35;;;;;;;;;;;;;;;;;;5066710;28;19929;-75
2023/11/17 09:56:03;;;;;;;;;;;;;;;;;;5059219;28;19925;-76
2023/11/17 09:58:30;;;;;;;;;;;;;;;;;;5048116;28;19971;-78
2023/11/17 10:00:56;;;;;;;;;;;;;;;;;;5065924;28;19979;-75
2023/11/17 10:03:23;;;;;;;;;;;;;;;;;;5060287;28;19924;-77
2023/11/17 10:05:49;;;;;;;;;;;;;;;;;;5060978;28;20007;-76
2023/11/17 10:08:16;;;;;;;;;;;;;;;;;;5059361;28;19929;-77
2023/11/17 10:10:43;;;;;;;;;;;;;;;;;;5062896;28;19925;-77
2023/11/17 10:13:12;;;;;;;;;;;;;;;;;;5059754;28;19925;-78
2023/11/17 10:15:39;;;;;;;;;;;;;;;;;;5060840;28;19924;-77
2023/11/17 10:18:06;;;;;;;;;;;;;;;;;;5051504;28;19967;-76
2023/11/17 10:20:32;;;;;;;;;;;;;;;;;;5062898;28;19925;-77
2023/11/17 10:22:58;;;;;;;;;;;;;;;;;;5058873;28;19925;-75
2023/11/17 10:25:25;;;;;;;;;;;;;;;;;;5061170;28;19924;-76
2023/11/17 10:27:52;;;;;;;;;;;;;;;;;;5063302;28;20006;-78
2023/11/17 10:30:21;;;;;;;;;;;;;;;;;;5062991;28;19997;-76
2023/11/17 10:32:50;;;;;;;;;;;;;;;;;;5061215;28;19925;-76
2023/11/17 10:35:25;;;;;;;;;;;;;;;;;;5061352;28;20303;-77
2023/11/17 10:37:54;;;;;;;;;;;;;;;;;;5057059;28;19971;-78
2023/11/17 10:40:23;;;;;;;;;;;;;;;;;;5056659;28;19928;-76
2023/11/17 10:42:50;;;;;;;;;;;;;;;;;;5061336;28;20359;-78
2023/11/17 10:45:19;;;;;;;;;;;;;;;;;;5058083;28;19938;-79
2023/11/17 10:47:47;;;;;;;;;;;;;;;;;;5065385;28;20023;-76
2023/11/17 10:50:14;;;;;;;;;;;;;;;;;;5048947;28;19925;-74
2023/11/17 10:52:40;;;;;;;;;;;;;;;;;;5059041;28;19925;-79
2023/11/17 10:55:07;;;;;;;;;;;;;;;;;;5062050;28;19925;-75
2023/11/17 10:57:35;;;;;;;;;;;;;;;;;;5066792;28;19929;-78
2023/11/17 11:00:01;;;;;;;;;;;;;;;;;;5056629;28;20015;-75
2023/11/17 11:02:29;;;;;;;;;;;;;;;;;;5069100;28;19925;-75
2023/11/17 11:04:58;;;;;;;;;;;;;;;;;;5062884;28;20365;-77
2023/11/17 11:07:25;;;;;;;;;;;;;;;;;;5065859;28;19932;-75
2023/11/17 11:09:52;;;;;;;;;;;;;;;;;;5054510;28;19940;-76
2023/11/17 11:12:20;;;;;;;;;;;;;;;;;;5058941;28;19925;-78
2023/11/17 11:14:49;;;;;;;;;;;;;;;;;;5052054;28;20377;-78
2023/11/17 11:17:16;;;;;;;;;;;;;;;;;;5059095;28;19933;-76
2023/11/17 11:19:44;;;;;;;;;;;;;;;;;;5050589;28;19951;-77
2023/11/17 11:22:23;;;;;;;;;;;;;;;;;;5056547;28;20084;-77
2023/11/17 11:24:49;;;;;;;;;;;;;;;;;;5062930;28;19963;-77
2023/11/17 11:27:15;;;;;;;;;;;;;;;;;;5055471;28;20369;-78
2023/11/17 11:29:42;;;;;;;;;;;;;;;;;;5059663;28;19960;-76
2023/11/17 11:32:08;;;;;;;;;;;;;;;;;;5062131;28;19932;-76
2023/11/17 11:34:35;;;;;;;;;;;;;;;;;;5062346;28;19970;-77
2023/11/17 11:37:03;;;;;;;;;;;;;;;;;;5055554;28;19933;-76
2023/11/17 11:39:31;;;;;;;;;;;;;;;;;;5047682;28;19936;-77
2023/11/17 11:42:00;;;;;;;;;;;;;;;;;;5045317;28;19932;-76
2023/11/17 11:44:26;;;;;;;;;;;;;;;;;;5051451;28;19940;-77
2023/11/17 11:46:53;;;;;;;;;;;;;;;;;;5056733;28;19932;-77
2023/11/17 11:49:19;;;;;;;;;;;;;;;;;;5057056;28;19951;-76
2023/11/17 11:51:46;;;;;;;;;;;;;;;;;;5060883;28;19956;-77
2023/11/17 11:54:12;;;;;;;;;;;;;;;;;;5043894;28;20019;-77
2023/11/17 11:56:39;;;;;;;;;;;;;;;;;;5060988;28;20023;-75
2023/11/17 11:59:06;;;;;;;;;;;;;;;;;;5060746;28;20011;-76
2023/11/17 12:01:32;;;;;;;;;;;;;;;;;;5060232;28;20048;-77
2023/11/17 12:03:59;;;;;;;;;;;;;;;;;;5062688;28;19924;-74
2023/11/17 12:06:26;;;;;;;;;;;;;;;;;;5064642;28;19989;-77
2023/11/17 12:08:53;;;;;;;;;;;;;;;;;;5064182;28;19924;-77
2023/11/17 12:11:20;;;;;;;;;;;;;;;;;;5058213;28;19925;-74
2023/11/17 12:13:47;;;;;;;;;;;;;;;;;;5053711;28;19986;-76
2023/11/17 12:16:17;;;;;;;;;;;;;;;;;;5059887;28;19925;-76
2023/11/17 12:18:48;;;;;;;;;;;;;;;;;;5060252;28;19928;-76
2023/11/17 12:21:18;;;;;;;;;;;;;;;;;;5054422;28;19924;-77
2023/11/17 12:23:45;;;;;;;;;;;;;;;;;;5057153;28;20301;-76
2023/11/17 12:26:11;;;;;;;;;;;;;;;;;;5046854;28;20658;-75
2023/11/17 12:28:37;;;;;;;;;;;;;;;;;;5060872;28;19924;-76
2023/11/17 12:31:05;;;;;;;;;;;;;;;;;;5063530;28;19929;-75
2023/11/17 12:33:32;;;;;;;;;;;;;;;;;;5065679;28;20416;-78
2023/11/17 12:35:58;;;;;;;;;;;;;;;;;;5066559;28;19924;-76
2023/11/17 12:38:28;;;;;;;;;;;;;;;;;;5063668;28;19955;-75
2023/11/17 12:40:55;;;;;;;;;;;;;;;;;;5040316;28;20015;-77
2023/11/17 12:43:22;;;;;;;;;;;;;;;;;;5061654;28;19932;-76
2023/11/17 12:45:48;;;;;;;;;;;;;;;;;;5063324;28;20010;-77
2023/11/17 12:48:17;;;;;;;;;;;;;;;;;;5049497;28;20015;-76
2023/11/17 12:50:43;;;;;;;;;;;;;;;;;;5056497;28;19925;-76
2023/11/17 12:53:10;;;;;;;;;;;;;;;;;;5068090;28;19978;-77
2023/11/17 12:55:37;;;;;;;;;;;;;;;;;;5062378;28;20010;-77
2023/11/17 12:58:03;;;;;;;;;;;;;;;;;;5066703;28;19933;-77
2023/11/17 13:00:29;;;;;;;;;;;;;;;;;;5059123;28;19990;-76
2023/11/17 13:02:56;;;;;;;;;;;;;;;;;;5059834;28;19924;-77
2023/11/17 13:05:22;;;;;;;;;;;;;;;;;;5063071;28;19924;-76
2023/11/17 13:07:51;;;;;;;;;;;;;;;;;;5063732;28;19932;-76
2023/11/17 13:10:17;;;;;;;;;;;;;;;;;;5061823;28;20380;-77
2023/11/17 13:12:45;;;;;;;;;;;;;;;;;;5064025;28;20015;-81
2023/11/17 13:15:13;;;;;;;;;;;;;;;;;;5044181;28;20005;-75
2023/11/17 13:17:39;;;;;;;;;;;;;;;;;;5065144;28;19925;-77
2023/11/17 13:20:40;;;;;;;;;;;;;;;;;;5059248;28;19924;-75
2023/11/17 13:22:59;;;;;;;;;;;;;;;;;;5064182;28;20313;-77
2023/11/17 13:25:26;;;;;;;;;;;;;;;;;;5065170;28;19928;-77
2023/11/17 13:27:53;;;;;;;;;;;;;;;;;;5065106;28;19932;-77
2023/11/17 13:30:19;;;;;;;;;;;;;;;;;;5063340;28;19925;-76
2023/11/17 13:32:45;;;;;;;;;;;;;;;;;;5063375;28;19931;-76
2023/11/17 13:35:12;;;;;;;;;;;;;;;;;;5070265;28;19947;-76
2023/11/17 13:37:38;;;;;;;;;;;;;;;;;;5060275;28;19931;-77
2023/11/17 13:40:10;;;;;;;;;;;;;;;;;;5065238;28;20377;-77
2023/11/17 13:42:36;;;;;;;;;;;;;;;;;;5061029;28;19924;-78
2023/11/17 13:45:03;;;;;;;;;;;;;;;;;;5069957;28;20381;-77
2023/11/17 13:47:30;;;;;;;;;;;;;;;;;;5046759;28;19925;-76
2023/11/17 13:49:56;;;;;;;;;;;;;;;;;;5063179;28;19956;-77
2023/11/17 13:52:23;;;;;;;;;;;;;;;;;;5061521;28;19982;-76
2023/11/17 13:54:51;;;;;;;;;;;;;;;;;;5060440;28;20019;-78
2023/11/17 13:57:17;;;;;;;;;;;;;;;;;;5047260;28;19925;-77
2023/11/17 13:59:49;;;;;;;;;;;;;;;;;;5059818;28;20044;-77
2023/11/17 14:02:15;;;;;;;;;;;;;;;;;;5045441;28;19986;-75
2023/11/17 14:04:42;;;;;;;;;;;;;;;;;;5063680;28;19928;-76
2023/11/17 14:07:09;;;;;;;;;;;;;;;;;;5062397;28;20660;-76
2023/11/17 14:09:37;;;;;;;;;;;;;;;;;;5064289;28;19925;-77
2023/11/17 14:12:03;;;;;;;;;;;;;;;;;;5047266;28;19968;-78
2023/11/17 14:14:30;;;;;;;;;;;;;;;;;;5063257;28;19971;-77
2023/11/17 14:16:57;;;;;;;;;;;;;;;;;;5045400;28;19947;-76
2023/11/17 14:19:31;;;;;;;;;;;;;;;;;;5061986;28;20016;-77
2023/11/17 14:21:57;;;;;;;;;;;;;;;;;;5065947;28;20358;-77
2023/11/17 14:24:24;;;;;;;;;;;;;;;;;;5065700;28;19931;-78
2023/11/17 14:26:50;;;;;;;;;;;;;;;;;;5060797;28;19928;-75
2023/11/17 14:29:17;;;;;;;;;;;;;;;;;;5063343;28;20019;-77
2023/11/17 14:31:43;;;;;;;;;;;;;;;;;;5067757;28;19978;-77
2023/11/17 14:34:21;;;;;;;;;;;;;;;;;;5065574;28;20266;-79
2023/11/17 14:36:49;;;;;;;;;;;;;;;;;;5059830;28;19932;-78
2023/11/17 14:39:15;;;;;;;;;;;;;;;;;;5063037;28;19924;-77
2023/11/17 14:41:41;;;;;;;;;;;;;;;;;;5061174;28;20019;-76
2023/11/17 14:44:08;;;;;;;;;;;;;;;;;;5045067;28;20357;-79
2023/11/17 14:46:34;;;;;;;;;;;;;;;;;;5066391;28;19928;-77
2023/11/17 14:49:01;;;;;;;;;;;;;;;;;;5061945;28;19978;-78
2023/11/17 14:51:28;;;;;;;;;;;;;;;;;;5052075;28;19929;-78
2023/11/17 14:53:55;;;;;;;;;;;;;;;;;;5061540;28;20342;-78
2023/11/17 14:56:23;;;;;;;;;;;;;;;;;;5064943;28;20001;-77
2023/11/17 14:58:50;;;;;;;;;;;;;;;;;;5051227;28;20389;-77
2023/11/17 15:01:17;;;;;;;;;;;;;;;;;;5047297;28;20009;-77
2023/11/17 15:03:44;;;;;;;;;;;;;;;;;;5059509;28;19932;-78
2023/11/17 15:06:17;;;;;;;;;;;;;;;;;;5063392;28;19935;-77
2023/11/17 15:08:43;;;;;;;;;;;;;;;;;;5067441;28;20040;-77
2023/11/17 15:11:13;;;;;;;;;;;;;;;;;;5061694;28;20012;-77
2023/11/17 15:13:39;;;;;;;;;;;;;;;;;;5060800;28;19932;-76
2023/11/17 15:16:06;;;;;;;;;;;;;;;;;;5059879;28;19925;-79
2023/11/17 15:18:34;;;;;;;;;;;;;;;;;;5064461;28;19967;-78
2023/11/17 15:21:00;;;;;;;;;;;;;;;;;;5061801;28;20032;-76
2023/11/17 15:23:27;;;;;;;;;;;;;;;;;;5059269;28;20312;-76
2023/11/17 15:25:53;;;;;;;;;;;;;;;;;;5062678;28;19966;-77
2023/11/17 15:28:20;;;;;;;;;;;;;;;;;;5061655;28;20145;-77
2023/11/17 15:30:54;;;;;;;;;;;;;;;;;;5058553;28;19925;-77
2023/11/17 15:33:20;;;;;;;;;;;;;;;;;;5062097;28;20292;-77
2023/11/17 15:35:48;;;;;;;;;;;;;;;;;;5056980;28;20027;-76
2023/11/17 15:38:16;;;;;;;;;;;;;;;;;;5060580;28;20031;-77
2023/11/17 15:40:43;;;;;;;;;;;;;;;;;;5062761;28;19978;-76
2023/11/17 15:43:09;;;;;;;;;;;;;;;;;;5067780;28;19925;-76
2023/11/17 15:45:36;;;;;;;;;;;;;;;;;;5056627;28;20076;-77
2023/11/17 15:48:03;;;;;;;;;;;;;;;;;;5050988;28;20385;-77
2023/11/17 15:50:31;;;;;;;;;;;;;;;;;;5050825;28;19967;-77
2023/11/17 15:52:57;;;;;;;;;;;;;;;;;;5066828;28;20657;-77
2023/11/17 15:55:24;;;;;;;;;;;;;;;;;;5067587;28;19963;-78
2023/11/17 15:57:50;;;;;;;;;;;;;;;;;;5050300;28;20336;-78
2023/11/17 16:00:23;;;;;;;;;;;;;;;;;;5063581;28;19936;-76
2023/11/17 16:02:50;;;;;;;;;;;;;;;;;;5065010;28;19956;-78
2023/11/17 16:05:17;;;;;;;;;;;;;;;;;;5043659;28;19932;-77
2023/11/17 16:07:44;;;;;;;;;;;;;;;;;;5055639;28;19929;-76
2023/11/17 16:10:20;;;;;;;;;;;;;;;;;;5044323;28;19956;-78
2023/11/17 16:12:46;;;;;;;;;;;;;;;;;;5064621;28;19932;-76
2023/11/17 16:15:13;;;;;;;;;;;;;;;;;;5050762;28;19933;-79
2023/11/17 16:17:39;;;;;;;;;;;;;;;;;;5068619;28;19925;-76
2023/11/17 16:20:06;;;;;;;;;;;;;;;;;;5065950;28;19929;-78
2023/11/17 16:22:33;;;;;;;;;;;;;;;;;;5045974;28;20074;-78
2023/11/17 16:25:00;;;;;;;;;;;;;;;;;;5067820;28;19925;-77
2023/11/17 16:27:26;;;;;;;;;;;;;;;;;;5060047;28;20339;-78
2023/11/17 16:29:53;;;;;;;;;;;;;;;;;;5050120;28;19932;-79
2023/11/17 16:32:19;;;;;;;;;;;;;;;;;;5059826;28;20007;-77
2023/11/17 16:34:47;;;;;;;;;;;;;;;;;;5045035;28;19932;-77
2023/11/17 16:37:14;;;;;;;;;;;;;;;;;;5062002;28;19924;-77
2023/11/17 16:39:40;;;;;;;;;;;;;;;;;;5071656;28;19964;-79
2023/11/17 16:42:08;;;;;;;;;;;;;;;;;;5066444;28;19975;-77
2023/11/17 16:44:34;;;;;;;;;;;;;;;;;;5060357;28;20023;-78
2023/11/17 16:47:00;;;;;;;;;;;;;;;;;;5058314;28;19929;-76